sensor_id;sensor_type;location;lat;lon;timestamp;pressure;altitude;pressure_sealevel;temperature;humidity
58973;BME280;44750;52.040;7.472;2024-02-23T05:01:10;97627.34;;;3.78;100.00
58973;BME280;44750;52.040;7.472;2024-02-23T05:06:10;97654.28;;;3.92;100.00
58973;BME280;44750;52.040;7.472;2024-02-23T05:16:10;97601.53;;;4.22;nan
58973;BME280;44750;52.040;7.472;2024-02-23T05:21:11;97561.44;;;4.29;nan
58973;BME280;44750;52.040;7.472;2024-02-23T05:26:11;97521.53;;;4.34;nan
58973;BME280;44750;52.040;7.472;2024-02-23T05:31:11;97474.84;;;4.43;nan
58973;BME280;44750;52.040;7.472;2024-02-23T05:36:11;97424.22;;;4.48;nan
58973;BME280;44750;52.040;7.472;2024-02-23T05:41:12;97358.28;;;4.47;nan
58973;BME280;44750;52.040;7.472;2024-02-23T05:46:13;97314.59;;;4.47;nan
58973;BME280;44750;52.040;7.472;2024-02-23T05:51:13;97279.16;;;4.51;nan
58973;BME280;44750;52.040;7.472;2024-02-23T05:56:13;97226.00;;;4.48;nan
58973;BME280;44750;52.040;7.472;2024-02-23T06:01:13;97192.25;;;4.61;nan
58973;BME280;44750;52.040;7.472;2024-02-23T06:06:14;97120.94;;;4.53;nan
58973;BME280;44750;52.040;7.472;2024-02-23T06:11:14;97107.38;;;4.61;nan
58973;BME280;44750;52.040;7.472;2024-02-23T06:16:14;97059.97;;;4.62;nan
58973;BME280;44750;52.040;7.472;2024-02-23T06:21:15;97018.78;;;4.63;nan
58973;BME280;44750;52.040;7.472;2024-02-23T06:26:15;96993.22;;;4.67;nan
58973;BME280;44750;52.040;7.472;2024-02-23T06:31:15;96967.44;;;4.66;nan
58973;BME280;44750;52.040;7.472;2024-02-23T06:36:15;96913.69;;;4.61;nan
58973;BME280;44750;52.040;7.472;2024-02-23T06:41:16;96892.88;;;4.69;nan
58973;BME280;44750;52.040;7.472;2024-02-23T06:46:18;96847.34;;;4.63;nan
58973;BME280;44750;52.040;7.472;2024-02-23T06:51:18;96810.66;;;4.63;nan
58973;BME280;44750;52.040;7.472;2024-02-23T06:56:19;96780.16;;;4.64;nan
58973;BME280;44750;52.040;7.472;2024-02-23T07:01:20;96762.19;;;4.72;nan
58973;BME280;44750;52.040;7.472;2024-02-23T07:06:20;96723.44;;;4.74;nan
58973;BME280;44750;52.040;7.472;2024-02-23T07:11:20;96693.97;;;4.74;nan
58973;BME280;44750;52.040;7.472;2024-02-23T07:16:21;96676.19;;;4.87;nan
58973;BME280;44750;52.040;7.472;2024-02-23T07:21:22;96646.44;;;4.95;nan
58973;BME280;44750;52.040;7.472;2024-02-23T15:17:54;97091.53;;;6.76;100.00
58973;BME280;44750;52.040;7.472;2024-02-23T15:22:54;97096.03;;;6.18;100.00
58973;BME280;44750;52.040;7.472;2024-02-23T15:27:54;97168.28;;;6.27;100.00
58973;BME280;44750;52.040;7.472;2024-02-23T15:32:54;97206.06;;;6.39;100.00
58973;BME280;44750;52.040;7.472;2024-02-23T15:37:55;97242.34;;;6.61;100.00
58973;BME280;44750;52.040;7.472;2024-02-23T15:42:55;97236.94;;;6.68;100.00
58973;BME280;44750;52.040;7.472;2024-02-23T15:47:55;97260.84;;;6.83;100.00
58973;BME280;44750;52.040;7.472;2024-02-23T15:52:56;97260.00;;;6.89;100.00
58973;BME280;44750;52.040;7.472;2024-02-23T15:57:56;97220.94;;;6.86;100.00
58973;BME280;44750;52.040;7.472;2024-02-23T16:02:56;97214.25;;;6.96;100.00
58973;BME280;44750;52.040;7.472;2024-02-23T16:07:56;97199.34;;;7.00;100.00
58973;BME280;44750;52.040;7.472;2024-02-23T16:12:57;97159.06;;;6.93;100.00
58973;BME280;44750;52.040;7.472;2024-02-23T16:17:57;97147.19;;;7.01;100.00
58973;BME280;44750;52.040;7.472;2024-02-23T16:22:57;97101.75;;;6.93;100.00
58973;BME280;44750;52.040;7.472;2024-02-23T16:27:58;97095.94;;;6.96;100.00
58973;BME280;44750;52.040;7.472;2024-02-23T16:32:58;97098.41;;;6.97;100.00
58973;BME280;44750;52.040;7.472;2024-02-23T16:37:58;97117.59;;;7.01;100.00
58973;BME280;44750;52.040;7.472;2024-02-23T16:42:59;97132.47;;;7.03;100.00
58973;BME280;44750;52.040;7.472;2024-02-23T16:47:59;97120.28;;;7.01;100.00
58973;BME280;44750;52.040;7.472;2024-02-23T16:52:59;97111.03;;;6.97;100.00
58973;BME280;44750;52.040;7.472;2024-02-23T16:57:59;97093.84;;;6.98;100.00
58973;BME280;44750;52.040;7.472;2024-02-23T17:03:00;97068.44;;;6.94;100.00
58973;BME280;44750;52.040;7.472;2024-02-23T17:08:00;97038.22;;;6.73;100.00
58973;BME280;44750;52.040;7.472;2024-02-23T17:13:00;96995.59;;;6.19;100.00
58973;BME280;44750;52.040;7.472;2024-02-23T17:18:00;97069.88;;;5.87;100.00
58973;BME280;44750;52.040;7.472;2024-02-23T17:23:01;97164.69;;;5.67;100.00
58973;BME280;44750;52.040;7.472;2024-02-23T17:28:01;97227.84;;;5.57;100.00
58973;BME280;44750;52.040;7.472;2024-02-23T17:33:01;97289.34;;;5.51;100.00
58973;BME280;44750;52.040;7.472;2024-02-23T17:38:02;97336.81;;;5.51;100.00
58973;BME280;44750;52.040;7.472;2024-02-23T17:43:02;97378.09;;;5.50;100.00
58973;BME280;44750;52.040;7.472;2024-02-23T17:48:02;97404.31;;;5.55;100.00
58973;BME280;44750;52.040;7.472;2024-02-23T17:53:03;97434.25;;;5.58;100.00
58973;BME280;44750;52.040;7.472;2024-02-23T17:58:03;97463.72;;;5.51;100.00
58973;BME280;44750;52.040;7.472;2024-02-23T18:03:03;97525.19;;;5.46;100.00
58973;BME280;44750;52.040;7.472;2024-02-23T18:08:04;97575.63;;;5.58;100.00
58973;BME280;44750;52.040;7.472;2024-02-23T18:13:04;97606.00;;;5.65;100.00
58973;BME280;44750;52.040;7.472;2024-02-23T18:18:05;97641.50;;;5.60;100.00
58973;BME280;44750;52.040;7.472;2024-02-23T18:23:05;97664.75;;;5.53;100.00
58973;BME280;44750;52.040;7.472;2024-02-23T18:28:05;97693.44;;;5.52;100.00
58973;BME280;44750;52.040;7.472;2024-02-23T18:33:05;97722.25;;;5.65;100.00
58973;BME280;44750;52.040;7.472;2024-02-23T18:38:06;97747.22;;;5.66;100.00
58973;BME280;44750;52.040;7.472;2024-02-23T18:43:06;97766.59;;;5.61;100.00
58973;BME280;44750;52.040;7.472;2024-02-23T18:48:07;97797.81;;;5.69;100.00
58973;BME280;44750;52.040;7.472;2024-02-23T18:53:07;97821.13;;;5.68;100.00
58973;BME280;44750;52.040;7.472;2024-02-23T18:58:07;97845.88;;;5.64;100.00
58973;BME280;44750;52.040;7.472;2024-02-23T19:03:07;97874.25;;;5.73;100.00
58973;BME280;44750;52.040;7.472;2024-02-23T19:08:08;97896.34;;;5.75;100.00
58973;BME280;44750;52.040;7.472;2024-02-23T19:13:08;97908.94;;;5.75;100.00
58973;BME280;44750;52.040;7.472;2024-02-23T19:18:08;97941.59;;;5.78;100.00
58973;BME280;44750;52.040;7.472;2024-02-23T19:23:08;97942.03;;;5.82;100.00
58973;BME280;44750;52.040;7.472;2024-02-23T19:28:09;97968.91;;;5.82;100.00
58973;BME280;44750;52.040;7.472;2024-02-23T19:33:10;97976.75;;;5.83;100.00
58973;BME280;44750;52.040;7.472;2024-02-23T19:38:10;97977.34;;;5.79;100.00
58973;BME280;44750;52.040;7.472;2024-02-23T19:43:10;97977.25;;;5.72;100.00
58973;BME280;44750;52.040;7.472;2024-02-23T19:48:11;97980.97;;;5.71;100.00
58973;BME280;44750;52.040;7.472;2024-02-23T19:53:11;97971.63;;;5.67;100.00
58973;BME280;44750;52.040;7.472;2024-02-23T19:58:11;97962.28;;;5.63;100.00
58973;BME280;44750;52.040;7.472;2024-02-23T20:03:11;97946.47;;;5.53;100.00
58973;BME280;44750;52.040;7.472;2024-02-23T20:08:12;97958.06;;;5.53;100.00
58973;BME280;44750;52.040;7.472;2024-02-23T20:13:12;97969.81;;;5.52;100.00
58973;BME280;44750;52.040;7.472;2024-02-23T20:18:12;97983.22;;;5.52;100.00
58973;BME280;44750;52.040;7.472;2024-02-23T20:23:12;97990.53;;;5.59;100.00
58973;BME280;44750;52.040;7.472;2024-02-23T20:28:13;97987.84;;;5.59;100.00
58973;BME280;44750;52.040;7.472;2024-02-23T20:33:13;97993.22;;;5.59;100.00
58973;BME280;44750;52.040;7.472;2024-02-23T20:38:13;98000.59;;;5.57;100.00
58973;BME280;44750;52.040;7.472;2024-02-23T20:43:14;98001.63;;;5.56;100.00
58973;BME280;44750;52.040;7.472;2024-02-23T20:48:14;97990.63;;;5.50;100.00
58973;BME280;44750;52.040;7.472;2024-02-23T20:53:14;98001.38;;;5.50;100.00
58973;BME280;44750;52.040;7.472;2024-02-23T20:58:14;97984.34;;;5.43;100.00
58973;BME280;44750;52.040;7.472;2024-02-23T21:03:15;97988.69;;;5.44;100.00
58973;BME280;44750;52.040;7.472;2024-02-23T21:08:15;97996.56;;;5.46;100.00
58973;BME280;44750;52.040;7.472;2024-02-23T21:13:16;97977.13;;;5.44;100.00
58973;BME280;44750;52.040;7.472;2024-02-23T21:18:16;97954.56;;;5.38;100.00
58973;BME280;44750;52.040;7.472;2024-02-23T21:23:16;97936.34;;;5.33;100.00
58973;BME280;44750;52.040;7.472;2024-02-23T21:28:16;97921.47;;;5.31;100.00
58973;BME280;44750;52.040;7.472;2024-02-23T21:33:17;97909.25;;;5.28;100.00
58973;BME280;44750;52.040;7.472;2024-02-23T21:38:17;97891.31;;;5.29;100.00
58973;BME280;44750;52.040;7.472;2024-02-23T21:43:17;97863.59;;;5.22;100.00
58973;BME280;44750;52.040;7.472;2024-02-23T21:48:17;97842.13;;;5.22;100.00
58973;BME280;44750;52.040;7.472;2024-02-23T21:53:18;97815.72;;;5.18;100.00
